sensor_id;sensor_type;location;lat;lon;timestamp;temperature;humidity
47606;DHT22;55448;51.330;4.946;2022-09-01T00:02:12;18.60;90.60
47606;DHT22;55448;51.330;4.946;2022-09-01T00:04:42;18.70;90.30
47606;DHT22;55448;51.330;4.946;2022-09-01T00:07:10;18.80;90.30
47606;DHT22;55448;51.330;4.946;2022-09-01T00:09:37;18.80;90.10
47606;DHT22;55448;51.330;4.946;2022-09-01T00:12:05;18.60;90.60
47606;DHT22;55448;51.330;4.946;2022-09-01T00:14:34;18.60;90.50
47606;DHT22;55448;51.330;4.946;2022-09-01T00:17:05;18.50;90.60
47606;DHT22;55448;51.330;4.946;2022-09-01T00:19:31;18.50;90.50
47606;DHT22;55448;51.330;4.946;2022-09-01T00:21:58;18.60;90.20
47606;DHT22;55448;51.330;4.946;2022-09-01T00:24:25;18.70;90.00
47606;DHT22;55448;51.330;4.946;2022-09-01T00:26:51;18.60;90.10
47606;DHT22;55448;51.330;4.946;2022-09-01T00:29:17;18.70;90.30
47606;DHT22;55448;51.330;4.946;2022-09-01T00:31:43;18.40;90.00
47606;DHT22;55448;51.330;4.946;2022-09-01T00:34:09;18.20;90.60
47606;DHT22;55448;51.330;4.946;2022-09-01T00:36:35;18.00;91.00
47606;DHT22;55448;51.330;4.946;2022-09-01T00:39:02;18.10;90.90
47606;DHT22;55448;51.330;4.946;2022-09-01T00:41:30;18.10;90.70
47606;DHT22;55448;51.330;4.946;2022-09-01T00:43:59;18.00;90.80
47606;DHT22;55448;51.330;4.946;2022-09-01T00:46:29;18.00;91.10
47606;DHT22;55448;51.330;4.946;2022-09-01T00:49:13;18.00;91.00
47606;DHT22;55448;51.330;4.946;2022-09-01T00:51:43;17.90;91.10
47606;DHT22;55448;51.330;4.946;2022-09-01T00:54:12;18.00;90.70
47606;DHT22;55448;51.330;4.946;2022-09-01T00:56:41;18.10;90.60
47606;DHT22;55448;51.330;4.946;2022-09-01T00:59:08;17.90;90.50
47606;DHT22;55448;51.330;4.946;2022-09-01T01:01:36;17.80;90.90
47606;DHT22;55448;51.330;4.946;2022-09-01T01:04:04;17.70;91.30
47606;DHT22;55448;51.330;4.946;2022-09-01T01:06:30;17.50;91.80
47606;DHT22;55448;51.330;4.946;2022-09-01T01:08:58;17.60;91.50
47606;DHT22;55448;51.330;4.946;2022-09-01T01:11:30;17.70;91.20
47606;DHT22;55448;51.330;4.946;2022-09-01T01:14:05;17.80;91.40
47606;DHT22;55448;51.330;4.946;2022-09-01T01:16:39;17.60;91.30
47606;DHT22;55448;51.330;4.946;2022-09-01T01:19:38;17.80;90.80
47606;DHT22;55448;51.330;4.946;2022-09-01T01:25:24;17.90;90.90
47606;DHT22;55448;51.330;4.946;2022-09-01T01:27:51;18.00;90.60
47606;DHT22;55448;51.330;4.946;2022-09-01T01:30:18;18.00;90.60
47606;DHT22;55448;51.330;4.946;2022-09-01T01:32:45;17.70;92.00
47606;DHT22;55448;51.330;4.946;2022-09-01T01:35:13;17.40;92.40
47606;DHT22;55448;51.330;4.946;2022-09-01T01:37:44;17.30;92.50
47606;DHT22;55448;51.330;4.946;2022-09-01T01:40:18;17.20;93.70
47606;DHT22;55448;51.330;4.946;2022-09-01T01:42:50;17.20;92.00
47606;DHT22;55448;51.330;4.946;2022-09-01T01:45:18;17.10;93.30
47606;DHT22;55448;51.330;4.946;2022-09-01T01:47:47;17.30;93.80
47606;DHT22;55448;51.330;4.946;2022-09-01T01:50:16;17.10;94.40
47606;DHT22;55448;51.330;4.946;2022-09-01T01:52:41;16.80;95.10
47606;DHT22;55448;51.330;4.946;2022-09-01T01:55:08;16.60;95.10
47606;DHT22;55448;51.330;4.946;2022-09-01T01:57:40;16.50;95.50
47606;DHT22;55448;51.330;4.946;2022-09-01T02:00:21;16.30;95.40
47606;DHT22;55448;51.330;4.946;2022-09-01T02:02:50;16.10;95.80
47606;DHT22;55448;51.330;4.946;2022-09-01T02:05:23;15.90;96.40
47606;DHT22;55448;51.330;4.946;2022-09-01T02:07:54;15.90;96.30
47606;DHT22;55448;51.330;4.946;2022-09-01T02:10:25;15.90;96.20
47606;DHT22;55448;51.330;4.946;2022-09-01T02:12:52;15.80;96.70
47606;DHT22;55448;51.330;4.946;2022-09-01T02:15:18;15.60;96.80
47606;DHT22;55448;51.330;4.946;2022-09-01T02:17:44;15.40;97.30
47606;DHT22;55448;51.330;4.946;2022-09-01T02:20:12;15.40;97.60
47606;DHT22;55448;51.330;4.946;2022-09-01T02:22:40;15.30;97.50
47606;DHT22;55448;51.330;4.946;2022-09-01T02:25:08;15.30;97.70
47606;DHT22;55448;51.330;4.946;2022-09-01T02:27:35;15.40;97.20
47606;DHT22;55448;51.330;4.946;2022-09-01T02:30:05;15.30;97.30
47606;DHT22;55448;51.330;4.946;2022-09-01T02:32:35;15.30;97.40
47606;DHT22;55448;51.330;4.946;2022-09-01T02:35:01;15.40;97.30
47606;DHT22;55448;51.330;4.946;2022-09-01T02:37:31;15.40;97.50
47606;DHT22;55448;51.330;4.946;2022-09-01T02:39:58;15.30;97.40
47606;DHT22;55448;51.330;4.946;2022-09-01T02:42:24;15.20;97.30
47606;DHT22;55448;51.330;4.946;2022-09-01T02:44:55;15.10;98.00
47606;DHT22;55448;51.330;4.946;2022-09-01T02:47:22;15.10;97.60
47606;DHT22;55448;51.330;4.946;2022-09-01T02:49:49;14.90;97.50
47606;DHT22;55448;51.330;4.946;2022-09-01T02:52:15;14.90;98.20
47606;DHT22;55448;51.330;4.946;2022-09-01T02:54:42;15.00;98.20
47606;DHT22;55448;51.330;4.946;2022-09-01T02:57:10;14.80;98.70
47606;DHT22;55448;51.330;4.946;2022-09-01T02:59:36;14.80;98.90
47606;DHT22;55448;51.330;4.946;2022-09-01T03:02:02;14.70;98.80
47606;DHT22;55448;51.330;4.946;2022-09-01T03:04:29;14.70;98.60
47606;DHT22;55448;51.330;4.946;2022-09-01T03:07:00;14.70;98.80
47606;DHT22;55448;51.330;4.946;2022-09-01T03:09:26;14.60;99.20
47606;DHT22;55448;51.330;4.946;2022-09-01T03:11:53;14.50;99.30
47606;DHT22;55448;51.330;4.946;2022-09-01T03:14:22;14.50;99.50
47606;DHT22;55448;51.330;4.946;2022-09-01T03:16:48;14.40;99.40
47606;DHT22;55448;51.330;4.946;2022-09-01T03:19:14;14.40;99.70
47606;DHT22;55448;51.330;4.946;2022-09-01T03:21:42;14.40;99.90
47606;DHT22;55448;51.330;4.946;2022-09-01T03:24:11;14.40;99.50
47606;DHT22;55448;51.330;4.946;2022-09-01T03:26:39;14.30;99.50
47606;DHT22;55448;51.330;4.946;2022-09-01T03:29:06;14.30;99.80
47606;DHT22;55448;51.330;4.946;2022-09-01T03:31:33;14.30;99.90
47606;DHT22;55448;51.330;4.946;2022-09-01T03:34:00;14.20;99.90
47606;DHT22;55448;51.330;4.946;2022-09-01T03:36:26;14.20;99.90
47606;DHT22;55448;51.330;4.946;2022-09-01T03:38:53;14.20;99.90
47606;DHT22;55448;51.330;4.946;2022-09-01T03:41:22;14.20;99.90
47606;DHT22;55448;51.330;4.946;2022-09-01T03:43:50;14.10;99.90
47606;DHT22;55448;51.330;4.946;2022-09-01T03:46:20;14.00;99.90
47606;DHT22;55448;51.330;4.946;2022-09-01T03:48:51;13.90;99.90
47606;DHT22;55448;51.330;4.946;2022-09-01T03:51:19;13.80;99.90
47606;DHT22;55448;51.330;4.946;2022-09-01T03:53:47;13.80;99.90
47606;DHT22;55448;51.330;4.946;2022-09-01T03:56:13;13.90;99.90
47606;DHT22;55448;51.330;4.946;2022-09-01T03:58:40;13.90;99.90
47606;DHT22;55448;51.330;4.946;2022-09-01T04:01:08;13.80;99.90
47606;DHT22;55448;51.330;4.946;2022-09-01T04:03:37;13.80;99.90
47606;DHT22;55448;51.330;4.946;2022-09-01T04:06:04;13.70;99.90
47606;DHT22;55448;51.330;4.946;2022-09-01T04:08:32;13.60;99.90
47606;DHT22;55448;51.330;4.946;2022-09-01T04:11:01;13.70;99.90
47606;DHT22;55448;51.330;4.946;2022-09-01T04:13:30;13.60;99.90
47606;DHT22;55448;51.330;4.946;2022-09-01T04:15:58;13.60;99.90
47606;DHT22;55448;51.330;4.946;2022-09-01T04:18:24;13.70;99.90
47606;DHT22;55448;51.330;4.946;2022-09-01T04:20:53;13.70;99.90
47606;DHT22;55448;51.330;4.946;2022-09-01T04:23:45;13.70;99.90
47606;DHT22;55448;51.330;4.946;2022-09-01T04:26:13;13.50;99.90
47606;DHT22;55448;51.330;4.946;2022-09-01T04:28:46;13.60;99.90
47606;DHT22;55448;51.330;4.946;2022-09-01T04:31:20;13.60;99.90
47606;DHT22;55448;51.330;4.946;2022-09-01T04:33:49;13.60;99.90
47606;DHT22;55448;51.330;4.946;2022-09-01T04:36:29;13.60;99.90
47606;DHT22;55448;51.330;4.946;2022-09-01T04:38:59;13.50;99.90
47606;DHT22;55448;51.330;4.946;2022-09-01T04:41:28;13.50;99.90
47606;DHT22;55448;51.330;4.946;2022-09-01T04:43:57;13.40;99.90
47606;DHT22;55448;51.330;4.946;2022-09-01T04:46:24;13.40;99.90
47606;DHT22;55448;51.330;4.946;2022-09-01T04:48:52;13.40;99.90
47606;DHT22;55448;51.330;4.946;2022-09-01T04:51:19;13.20;99.90
47606;DHT22;55448;51.330;4.946;2022-09-01T04:53:45;13.10;99.90
47606;DHT22;55448;51.330;4.946;2022-09-01T04:56:14;13.20;99.90
47606;DHT22;55448;51.330;4.946;2022-09-01T04:58:43;13.30;99.90
47606;DHT22;55448;51.330;4.946;2022-09-01T05:01:20;13.30;99.90
47606;DHT22;55448;51.330;4.946;2022-09-01T05:03:46;13.50;99.90
47606;DHT22;55448;51.330;4.946;2022-09-01T05:06:26;13.80;99.90
47606;DHT22;55448;51.330;4.946;2022-09-01T05:08:52;13.80;99.90
47606;DHT22;55448;51.330;4.946;2022-09-01T05:11:21;13.90;99.90
47606;DHT22;55448;51.330;4.946;2022-09-01T05:13:49;14.10;99.90
47606;DHT22;55448;51.330;4.946;2022-09-01T05:16:19;14.20;99.90
47606;DHT22;55448;51.330;4.946;2022-09-01T05:18:47;14.40;99.90
47606;DHT22;55448;51.330;4.946;2022-09-01T05:21:19;14.50;99.90
47606;DHT22;55448;51.330;4.946;2022-09-01T05:23:47;14.70;99.90
47606;DHT22;55448;51.330;4.946;2022-09-01T05:26:21;14.90;99.90
47606;DHT22;55448;51.330;4.946;2022-09-01T05:28:51;15.10;99.90
47606;DHT22;55448;51.330;4.946;2022-09-01T05:31:21;15.10;99.90
47606;DHT22;55448;51.330;4.946;2022-09-01T05:33:48;15.20;99.90
47606;DHT22;55448;51.330;4.946;2022-09-01T05:36:19;15.40;99.90
47606;DHT22;55448;51.330;4.946;2022-09-01T05:38:46;15.40;99.90
47606;DHT22;55448;51.330;4.946;2022-09-01T05:41:13;15.40;99.90
47606;DHT22;55448;51.330;4.946;2022-09-01T05:43:40;15.40;99.90
47606;DHT22;55448;51.330;4.946;2022-09-01T05:46:11;15.60;98.60
47606;DHT22;55448;51.330;4.946;2022-09-01T05:48:37;15.80;98.20
47606;DHT22;55448;51.330;4.946;2022-09-01T05:51:05;15.90;98.30
47606;DHT22;55448;51.330;4.946;2022-09-01T05:53:32;15.80;98.50
47606;DHT22;55448;51.330;4.946;2022-09-01T05:55:59;15.70;98.80
47606;DHT22;55448;51.330;4.946;2022-09-01T05:58:32;15.80;98.80
47606;DHT22;55448;51.330;4.946;2022-09-01T06:00:59;15.90;98.40
47606;DHT22;55448;51.330;4.946;2022-09-01T06:03:25;16.00;98.50
47606;DHT22;55448;51.330;4.946;2022-09-01T06:05:53;16.10;98.50
47606;DHT22;55448;51.330;4.946;2022-09-01T06:08:22;16.40;97.80
47606;DHT22;55448;51.330;4.946;2022-09-01T06:10:50;16.70;97.30
47606;DHT22;55448;51.330;4.946;2022-09-01T06:13:17;16.80;97.30
47606;DHT22;55448;51.330;4.946;2022-09-01T06:15:47;16.70;97.40
47606;DHT22;55448;51.330;4.946;2022-09-01T06:18:13;16.60;97.50
47606;DHT22;55448;51.330;4.946;2022-09-01T06:20:40;16.50;97.80
47606;DHT22;55448;51.330;4.946;2022-09-01T06:23:08;16.60;98.00
47606;DHT22;55448;51.330;4.946;2022-09-01T06:25:37;16.70;97.80
47606;DHT22;55448;51.330;4.946;2022-09-01T06:28:04;16.70;98.10
47606;DHT22;55448;51.330;4.946;2022-09-01T06:30:30;16.90;97.90
47606;DHT22;55448;51.330;4.946;2022-09-01T06:32:57;16.90;97.90
47606;DHT22;55448;51.330;4.946;2022-09-01T06:35:25;17.00;97.90
47606;DHT22;55448;51.330;4.946;2022-09-01T06:37:54;17.10;97.50
47606;DHT22;55448;51.330;4.946;2022-09-01T06:40:21;17.30;97.30
47606;DHT22;55448;51.330;4.946;2022-09-01T06:42:50;17.50;97.10
47606;DHT22;55448;51.330;4.946;2022-09-01T06:45:19;17.60;97.10
47606;DHT22;55448;51.330;4.946;2022-09-01T06:47:46;17.70;96.70
47606;DHT22;55448;51.330;4.946;2022-09-01T06:50:14;17.90;96.50
47606;DHT22;55448;51.330;4.946;2022-09-01T06:52:44;18.10;96.30
47606;DHT22;55448;51.330;4.946;2022-09-01T06:55:12;18.20;96.60
47606;DHT22;55448;51.330;4.946;2022-09-01T06:57:39;18.00;96.20
47606;DHT22;55448;51.330;4.946;2022-09-01T07:00:10;17.90;96.90
47606;DHT22;55448;51.330;4.946;2022-09-01T07:02:46;18.10;96.80
47606;DHT22;55448;51.330;4.946;2022-09-01T07:05:14;18.30;96.50
47606;DHT22;55448;51.330;4.946;2022-09-01T07:07:49;18.30;96.90
47606;DHT22;55448;51.330;4.946;2022-09-01T07:10:17;18.30;96.30
47606;DHT22;55448;51.330;4.946;2022-09-01T07:12:46;18.30;96.80
47606;DHT22;55448;51.330;4.946;2022-09-01T07:15:12;18.30;96.60
47606;DHT22;55448;51.330;4.946;2022-09-01T07:17:48;18.50;96.50
47606;DHT22;55448;51.330;4.946;2022-09-01T07:20:15;18.60;96.50
47606;DHT22;55448;51.330;4.946;2022-09-01T07:22:41;18.80;96.40
47606;DHT22;55448;51.330;4.946;2022-09-01T07:25:07;18.90;95.90
47606;DHT22;55448;51.330;4.946;2022-09-01T07:27:37;18.90;96.10
47606;DHT22;55448;51.330;4.946;2022-09-01T07:30:04;19.10;96.10
47606;DHT22;55448;51.330;4.946;2022-09-01T07:32:35;19.10;95.70
47606;DHT22;55448;51.330;4.946;2022-09-01T07:35:03;19.40;95.10
47606;DHT22;55448;51.330;4.946;2022-09-01T07:37:31;19.50;95.20
47606;DHT22;55448;51.330;4.946;2022-09-01T07:40:05;19.50;94.60
47606;DHT22;55448;51.330;4.946;2022-09-01T07:42:32;19.70;94.10
47606;DHT22;55448;51.330;4.946;2022-09-01T07:44:58;19.60;94.40
47606;DHT22;55448;51.330;4.946;2022-09-01T07:47:24;19.90;93.80
47606;DHT22;55448;51.330;4.946;2022-09-01T07:49:51;20.00;93.40
47606;DHT22;55448;51.330;4.946;2022-09-01T07:52:16;20.00;93.30
47606;DHT22;55448;51.330;4.946;2022-09-01T07:54:43;19.90;93.70
47606;DHT22;55448;51.330;4.946;2022-09-01T07:57:08;20.00;93.50
47606;DHT22;55448;51.330;4.946;2022-09-01T07:59:34;20.20;93.60
47606;DHT22;55448;51.330;4.946;2022-09-01T08:02:00;20.50;93.20
47606;DHT22;55448;51.330;4.946;2022-09-01T08:04:30;20.40;93.20
47606;DHT22;55448;51.330;4.946;2022-09-01T08:06:58;20.50;92.90
47606;DHT22;55448;51.330;4.946;2022-09-01T08:09:25;20.90;92.70
47606;DHT22;55448;51.330;4.946;2022-09-01T08:11:52;20.70;93.10
47606;DHT22;55448;51.330;4.946;2022-09-01T08:14:17;20.80;92.70
47606;DHT22;55448;51.330;4.946;2022-09-01T08:16:43;20.90;92.40
47606;DHT22;55448;51.330;4.946;2022-09-01T08:19:09;21.10;92.00
47606;DHT22;55448;51.330;4.946;2022-09-01T08:21:34;21.00;92.10
47606;DHT22;55448;51.330;4.946;2022-09-01T08:24:00;21.20;92.10
47606;DHT22;55448;51.330;4.946;2022-09-01T08:26:26;21.20;91.80
47606;DHT22;55448;51.330;4.946;2022-09-01T08:28:52;21.20;91.60
47606;DHT22;55448;51.330;4.946;2022-09-01T08:31:19;21.20;91.90
47606;DHT22;55448;51.330;4.946;2022-09-01T08:33:46;21.20;92.10
47606;DHT22;55448;51.330;4.946;2022-09-01T08:36:13;21.10;92.10
47606;DHT22;55448;51.330;4.946;2022-09-01T08:38:40;21.50;91.70
47606;DHT22;55448;51.330;4.946;2022-09-01T08:41:31;21.60;91.70
47606;DHT22;55448;51.330;4.946;2022-09-01T08:46:54;21.80;90.90
47606;DHT22;55448;51.330;4.946;2022-09-01T08:49:24;22.10;90.60
47606;DHT22;55448;51.330;4.946;2022-09-01T08:51:59;21.90;90.40
47606;DHT22;55448;51.330;4.946;2022-09-01T08:54:49;21.60;91.30
47606;DHT22;55448;51.330;4.946;2022-09-01T08:57:37;21.70;91.30
47606;DHT22;55448;51.330;4.946;2022-09-01T09:00:07;21.80;91.00
47606;DHT22;55448;51.330;4.946;2022-09-01T09:11:02;22.00;90.30
47606;DHT22;55448;51.330;4.946;2022-09-01T09:14:04;22.00;90.40
47606;DHT22;55448;51.330;4.946;2022-09-01T09:16:40;22.30;90.60
47606;DHT22;55448;51.330;4.946;2022-09-01T09:19:38;22.30;90.10
47606;DHT22;55448;51.330;4.946;2022-09-01T09:22:07;22.80;89.20
47606;DHT22;55448;51.330;4.946;2022-09-01T09:24:53;23.10;87.60
47606;DHT22;55448;51.330;4.946;2022-09-01T09:27:27;23.50;85.90
47606;DHT22;55448;51.330;4.946;2022-09-01T09:32:23;22.60;87.40
47606;DHT22;55448;51.330;4.946;2022-09-01T09:34:50;23.00;86.50
47606;DHT22;55448;51.330;4.946;2022-09-01T09:37:26;22.80;86.40
47606;DHT22;55448;51.330;4.946;2022-09-01T09:40:11;22.90;85.50
47606;DHT22;55448;51.330;4.946;2022-09-01T09:42:42;22.60;86.20
47606;DHT22;55448;51.330;4.946;2022-09-01T09:45:26;22.50;85.70
47606;DHT22;55448;51.330;4.946;2022-09-01T09:47:54;22.70;86.50
47606;DHT22;55448;51.330;4.946;2022-09-01T09:50:32;23.10;83.80
47606;DHT22;55448;51.330;4.946;2022-09-01T09:58:36;23.40;79.90
47606;DHT22;55448;51.330;4.946;2022-09-01T10:01:11;23.60;80.40
47606;DHT22;55448;51.330;4.946;2022-09-01T10:04:00;23.40;78.70
47606;DHT22;55448;51.330;4.946;2022-09-01T10:09:05;23.30;76.80
47606;DHT22;55448;51.330;4.946;2022-09-01T10:11:44;23.90;76.00
47606;DHT22;55448;51.330;4.946;2022-09-01T10:14:19;23.80;72.80
47606;DHT22;55448;51.330;4.946;2022-09-01T10:17:13;23.40;73.10
47606;DHT22;55448;51.330;4.946;2022-09-01T10:19:58;23.60;72.50
47606;DHT22;55448;51.330;4.946;2022-09-01T10:22:30;23.60;71.30
47606;DHT22;55448;51.330;4.946;2022-09-01T10:24:55;23.70;72.40
47606;DHT22;55448;51.330;4.946;2022-09-01T10:27:23;23.90;70.80
47606;DHT22;55448;51.330;4.946;2022-09-01T10:29:55;24.00;71.70
47606;DHT22;55448;51.330;4.946;2022-09-01T10:32:27;23.70;71.90
47606;DHT22;55448;51.330;4.946;2022-09-01T10:34:54;23.90;70.90
47606;DHT22;55448;51.330;4.946;2022-09-01T10:37:21;23.70;70.00
47606;DHT22;55448;51.330;4.946;2022-09-01T10:42:35;24.10;68.70
47606;DHT22;55448;51.330;4.946;2022-09-01T10:45:01;24.40;67.80
47606;DHT22;55448;51.330;4.946;2022-09-01T10:47:27;24.60;66.80
47606;DHT22;55448;51.330;4.946;2022-09-01T10:52:52;24.90;65.70
47606;DHT22;55448;51.330;4.946;2022-09-01T10:55:20;24.50;68.50
47606;DHT22;55448;51.330;4.946;2022-09-01T11:00:43;25.20;65.80
47606;DHT22;55448;51.330;4.946;2022-09-01T11:06:07;25.20;65.70
47606;DHT22;55448;51.330;4.946;2022-09-01T11:14:02;25.20;61.40
47606;DHT22;55448;51.330;4.946;2022-09-01T11:16:34;25.20;64.00
47606;DHT22;55448;51.330;4.946;2022-09-01T11:19:34;24.70;64.50
47606;DHT22;55448;51.330;4.946;2022-09-01T11:27:54;24.70;62.60
47606;DHT22;55448;51.330;4.946;2022-09-01T11:30:02;25.10;62.60
47606;DHT22;55448;51.330;4.946;2022-09-01T11:32:34;25.50;62.20
47606;DHT22;55448;51.330;4.946;2022-09-01T11:35:03;25.80;61.50
47606;DHT22;55448;51.330;4.946;2022-09-01T11:37:31;26.00;62.50
47606;DHT22;55448;51.330;4.946;2022-09-01T11:39:59;25.20;62.20
47606;DHT22;55448;51.330;4.946;2022-09-01T11:42:27;25.40;62.40
47606;DHT22;55448;51.330;4.946;2022-09-01T11:44:59;25.40;61.70
47606;DHT22;55448;51.330;4.946;2022-09-01T11:47:31;25.00;62.20
47606;DHT22;55448;51.330;4.946;2022-09-01T11:50:27;24.90;62.90
47606;DHT22;55448;51.330;4.946;2022-09-01T11:53:03;25.20;61.70
47606;DHT22;55448;51.330;4.946;2022-09-01T11:55:41;25.40;61.50
47606;DHT22;55448;51.330;4.946;2022-09-01T11:58:28;25.30;62.00
47606;DHT22;55448;51.330;4.946;2022-09-01T12:03:41;25.80;61.30
47606;DHT22;55448;51.330;4.946;2022-09-01T12:06:10;25.50;60.60
47606;DHT22;55448;51.330;4.946;2022-09-01T12:08:39;25.80;60.20
47606;DHT22;55448;51.330;4.946;2022-09-01T12:11:11;25.70;60.70
47606;DHT22;55448;51.330;4.946;2022-09-01T12:14:01;26.00;60.40
47606;DHT22;55448;51.330;4.946;2022-09-01T12:16:29;25.90;60.00
47606;DHT22;55448;51.330;4.946;2022-09-01T12:18:57;26.00;59.70
47606;DHT22;55448;51.330;4.946;2022-09-01T12:21:29;26.20;58.90
47606;DHT22;55448;51.330;4.946;2022-09-01T12:24:20;26.20;59.50
47606;DHT22;55448;51.330;4.946;2022-09-01T12:26:46;26.00;58.80
47606;DHT22;55448;51.330;4.946;2022-09-01T12:29:13;26.00;59.10
47606;DHT22;55448;51.330;4.946;2022-09-01T12:31:40;25.70;60.10
47606;DHT22;55448;51.330;4.946;2022-09-01T12:39:55;26.20;58.50
47606;DHT22;55448;51.330;4.946;2022-09-01T12:42:27;26.10;58.00
47606;DHT22;55448;51.330;4.946;2022-09-01T12:52:49;25.60;57.40
47606;DHT22;55448;51.330;4.946;2022-09-01T12:55:21;25.30;58.30
47606;DHT22;55448;51.330;4.946;2022-09-01T12:57:50;25.40;59.60
47606;DHT22;55448;51.330;4.946;2022-09-01T13:00:19;25.70;57.80
47606;DHT22;55448;51.330;4.946;2022-09-01T13:02:48;26.00;57.60
47606;DHT22;55448;51.330;4.946;2022-09-01T13:05:29;26.40;57.00
47606;DHT22;55448;51.330;4.946;2022-09-01T13:08:00;26.50;56.70
47606;DHT22;55448;51.330;4.946;2022-09-01T13:10:30;26.30;54.50
47606;DHT22;55448;51.330;4.946;2022-09-01T13:12:56;26.30;55.80
47606;DHT22;55448;51.330;4.946;2022-09-01T13:15:23;26.30;55.50
47606;DHT22;55448;51.330;4.946;2022-09-01T13:17:51;26.10;56.60
47606;DHT22;55448;51.330;4.946;2022-09-01T13:20:17;26.00;56.50
47606;DHT22;55448;51.330;4.946;2022-09-01T13:22:43;25.60;57.10
47606;DHT22;55448;51.330;4.946;2022-09-01T13:25:13;26.10;57.20
47606;DHT22;55448;51.330;4.946;2022-09-01T13:27:39;26.30;56.30
47606;DHT22;55448;51.330;4.946;2022-09-01T13:30:10;26.30;56.60
47606;DHT22;55448;51.330;4.946;2022-09-01T13:32:36;26.50;55.80
47606;DHT22;55448;51.330;4.946;2022-09-01T13:35:03;26.40;55.50
47606;DHT22;55448;51.330;4.946;2022-09-01T13:37:29;26.60;55.20
47606;DHT22;55448;51.330;4.946;2022-09-01T13:39:55;27.00;55.20
47606;DHT22;55448;51.330;4.946;2022-09-01T13:42:20;27.30;53.90
47606;DHT22;55448;51.330;4.946;2022-09-01T13:44:46;27.10;54.10
47606;DHT22;55448;51.330;4.946;2022-09-01T13:47:12;27.10;54.50
47606;DHT22;55448;51.330;4.946;2022-09-01T13:49:38;26.60;54.80
47606;DHT22;55448;51.330;4.946;2022-09-01T13:52:04;26.40;55.10
47606;DHT22;55448;51.330;4.946;2022-09-01T13:54:30;26.60;55.50
47606;DHT22;55448;51.330;4.946;2022-09-01T13:56:55;26.80;54.20
47606;DHT22;55448;51.330;4.946;2022-09-01T13:59:21;27.50;53.60
47606;DHT22;55448;51.330;4.946;2022-09-01T14:01:47;27.70;52.50
47606;DHT22;55448;51.330;4.946;2022-09-01T14:04:13;28.00;51.80
47606;DHT22;55448;51.330;4.946;2022-09-01T14:06:40;28.20;51.90
47606;DHT22;55448;51.330;4.946;2022-09-01T14:09:09;28.10;51.90
47606;DHT22;55448;51.330;4.946;2022-09-01T14:11:35;27.30;52.50
47606;DHT22;55448;51.330;4.946;2022-09-01T14:14:02;26.90;52.90
47606;DHT22;55448;51.330;4.946;2022-09-01T14:16:28;26.90;52.60
47606;DHT22;55448;51.330;4.946;2022-09-01T14:18:53;26.80;52.70
47606;DHT22;55448;51.330;4.946;2022-09-01T14:21:19;26.70;53.50
47606;DHT22;55448;51.330;4.946;2022-09-01T14:23:45;26.90;52.40
47606;DHT22;55448;51.330;4.946;2022-09-01T14:26:15;27.40;52.40
47606;DHT22;55448;51.330;4.946;2022-09-01T14:28:42;28.30;50.90
47606;DHT22;55448;51.330;4.946;2022-09-01T14:31:16;28.50;50.50
47606;DHT22;55448;51.330;4.946;2022-09-01T14:33:43;28.30;50.30
47606;DHT22;55448;51.330;4.946;2022-09-01T14:36:18;27.40;51.80
47606;DHT22;55448;51.330;4.946;2022-09-01T14:38:44;27.20;52.80
47606;DHT22;55448;51.330;4.946;2022-09-01T14:41:12;27.40;52.10
47606;DHT22;55448;51.330;4.946;2022-09-01T14:43:39;27.60;51.70
47606;DHT22;55448;51.330;4.946;2022-09-01T14:46:08;27.50;52.30
47606;DHT22;55448;51.330;4.946;2022-09-01T14:48:36;27.60;51.60
47606;DHT22;55448;51.330;4.946;2022-09-01T14:51:03;27.90;51.80
47606;DHT22;55448;51.330;4.946;2022-09-01T14:53:29;28.00;51.30
47606;DHT22;55448;51.330;4.946;2022-09-01T14:55:56;28.00;51.20
47606;DHT22;55448;51.330;4.946;2022-09-01T14:58:23;28.30;50.90
47606;DHT22;55448;51.330;4.946;2022-09-01T15:00:49;28.50;50.50
47606;DHT22;55448;51.330;4.946;2022-09-01T15:03:15;28.80;50.40
47606;DHT22;55448;51.330;4.946;2022-09-01T15:05:41;29.20;49.90
47606;DHT22;55448;51.330;4.946;2022-09-01T15:08:08;29.40;48.90
47606;DHT22;55448;51.330;4.946;2022-09-01T15:10:34;29.90;48.70
47606;DHT22;55448;51.330;4.946;2022-09-01T15:13:00;29.60;49.20
47606;DHT22;55448;51.330;4.946;2022-09-01T15:15:28;29.80;49.10
47606;DHT22;55448;51.330;4.946;2022-09-01T15:17:54;29.40;49.10
47606;DHT22;55448;51.330;4.946;2022-09-01T15:20:21;29.10;48.50
47606;DHT22;55448;51.330;4.946;2022-09-01T15:23:06;28.70;49.50
47606;DHT22;55448;51.330;4.946;2022-09-01T15:25:32;28.50;49.30
47606;DHT22;55448;51.330;4.946;2022-09-01T15:27:58;28.40;49.20
47606;DHT22;55448;51.330;4.946;2022-09-01T15:30:24;28.50;50.20
47606;DHT22;55448;51.330;4.946;2022-09-01T15:32:51;28.30;49.80
47606;DHT22;55448;51.330;4.946;2022-09-01T15:35:19;28.60;49.10
47606;DHT22;55448;51.330;4.946;2022-09-01T15:37:47;29.40;48.90
47606;DHT22;55448;51.330;4.946;2022-09-01T15:40:19;29.10;49.00
47606;DHT22;55448;51.330;4.946;2022-09-01T15:42:45;28.70;50.20
47606;DHT22;55448;51.330;4.946;2022-09-01T15:45:13;28.40;50.60
47606;DHT22;55448;51.330;4.946;2022-09-01T15:47:40;27.50;51.40
47606;DHT22;55448;51.330;4.946;2022-09-01T15:50:09;27.60;51.60
47606;DHT22;55448;51.330;4.946;2022-09-01T15:53:07;28.30;50.80
47606;DHT22;55448;51.330;4.946;2022-09-01T15:55:48;29.20;50.10
47606;DHT22;55448;51.330;4.946;2022-09-01T15:58:16;29.50;49.40
47606;DHT22;55448;51.330;4.946;2022-09-01T16:00:43;28.90;49.30
47606;DHT22;55448;51.330;4.946;2022-09-01T16:03:09;28.80;48.90
47606;DHT22;55448;51.330;4.946;2022-09-01T16:05:37;29.00;49.30
47606;DHT22;55448;51.330;4.946;2022-09-01T16:08:04;29.00;49.50
47606;DHT22;55448;51.330;4.946;2022-09-01T16:10:34;28.80;49.70
47606;DHT22;55448;51.330;4.946;2022-09-01T16:13:01;29.20;48.80
47606;DHT22;55448;51.330;4.946;2022-09-01T16:15:27;29.00;49.10
47606;DHT22;55448;51.330;4.946;2022-09-01T16:21:05;28.70;48.80
47606;DHT22;55448;51.330;4.946;2022-09-01T16:23:42;28.50;48.70
47606;DHT22;55448;51.330;4.946;2022-09-01T16:26:09;29.00;48.90
47606;DHT22;55448;51.330;4.946;2022-09-01T16:28:37;29.70;48.80
47606;DHT22;55448;51.330;4.946;2022-09-01T16:31:30;29.90;48.30
47606;DHT22;55448;51.330;4.946;2022-09-01T16:33:59;29.70;48.70
47606;DHT22;55448;51.330;4.946;2022-09-01T16:36:35;28.90;49.10
47606;DHT22;55448;51.330;4.946;2022-09-01T16:45:14;28.90;49.60
47606;DHT22;55448;51.330;4.946;2022-09-01T16:47:53;29.10;48.70
47606;DHT22;55448;51.330;4.946;2022-09-01T16:53:15;28.00;50.50
47606;DHT22;55448;51.330;4.946;2022-09-01T16:56:09;27.90;50.70
47606;DHT22;55448;51.330;4.946;2022-09-01T17:03:35;27.00;51.90
47606;DHT22;55448;51.330;4.946;2022-09-01T17:06:28;27.10;52.50
47606;DHT22;55448;51.330;4.946;2022-09-01T17:09:37;27.60;52.80